sensor_id;sensor_type;location;lat;lon;timestamp;temperature;humidity
59999;DHT22;45859;51.378;6.736;2023-04-24T00:00:13;11.50;99.90
59999;DHT22;45859;51.378;6.736;2023-04-24T00:02:39;11.40;99.90
59999;DHT22;45859;51.378;6.736;2023-04-24T00:05:06;11.40;99.90
59999;DHT22;45859;51.378;6.736;2023-04-24T00:07:32;11.40;99.90
59999;DHT22;45859;51.378;6.736;2023-04-24T00:09:58;11.40;99.90
59999;DHT22;45859;51.378;6.736;2023-04-24T00:12:24;11.50;99.90
59999;DHT22;45859;51.378;6.736;2023-04-24T00:14:49;11.40;99.90
59999;DHT22;45859;51.378;6.736;2023-04-24T00:17:15;11.30;99.90
59999;DHT22;45859;51.378;6.736;2023-04-24T00:19:41;11.30;99.90
59999;DHT22;45859;51.378;6.736;2023-04-24T00:22:07;11.20;99.90
59999;DHT22;45859;51.378;6.736;2023-04-24T00:24:32;11.20;99.90
59999;DHT22;45859;51.378;6.736;2023-04-24T00:26:58;11.20;99.90
59999;DHT22;45859;51.378;6.736;2023-04-24T00:29:24;12.20;99.90
59999;DHT22;45859;51.378;6.736;2023-04-24T00:31:50;11.10;99.90
59999;DHT22;45859;51.378;6.736;2023-04-24T00:34:16;11.10;99.90
59999;DHT22;45859;51.378;6.736;2023-04-24T00:36:41;11.50;99.90
59999;DHT22;45859;51.378;6.736;2023-04-24T00:39:07;11.10;99.90
59999;DHT22;45859;51.378;6.736;2023-04-24T00:41:36;11.60;99.90
59999;DHT22;45859;51.378;6.736;2023-04-24T00:44:01;12.00;99.90
59999;DHT22;45859;51.378;6.736;2023-04-24T00:46:28;11.00;99.90
59999;DHT22;45859;51.378;6.736;2023-04-24T00:48:53;11.30;99.90
59999;DHT22;45859;51.378;6.736;2023-04-24T00:51:20;10.80;99.90
59999;DHT22;45859;51.378;6.736;2023-04-24T00:53:46;10.80;99.90
59999;DHT22;45859;51.378;6.736;2023-04-24T00:56:13;10.90;99.90
59999;DHT22;45859;51.378;6.736;2023-04-24T00:58:39;11.40;99.90
59999;DHT22;45859;51.378;6.736;2023-04-24T01:01:06;10.60;99.90
59999;DHT22;45859;51.378;6.736;2023-04-24T01:03:33;10.50;99.90
59999;DHT22;45859;51.378;6.736;2023-04-24T01:05:58;10.50;99.90
59999;DHT22;45859;51.378;6.736;2023-04-24T01:08:26;10.20;99.90
59999;DHT22;45859;51.378;6.736;2023-04-24T01:10:53;10.50;99.90
59999;DHT22;45859;51.378;6.736;2023-04-24T01:13:20;10.20;99.90
59999;DHT22;45859;51.378;6.736;2023-04-24T01:15:47;10.60;99.90
59999;DHT22;45859;51.378;6.736;2023-04-24T01:18:13;10.10;99.90
59999;DHT22;45859;51.378;6.736;2023-04-24T01:20:43;10.00;99.90
59999;DHT22;45859;51.378;6.736;2023-04-24T01:25:37;10.00;99.90
59999;DHT22;45859;51.378;6.736;2023-04-24T01:28:03;9.80;99.90
59999;DHT22;45859;51.378;6.736;2023-04-24T01:30:29;8.70;99.90
59999;DHT22;45859;51.378;6.736;2023-04-24T01:32:55;9.80;99.90
59999;DHT22;45859;51.378;6.736;2023-04-24T01:35:21;9.90;99.90
59999;DHT22;45859;51.378;6.736;2023-04-24T01:37:47;9.80;99.90
59999;DHT22;45859;51.378;6.736;2023-04-24T01:40:12;10.00;99.90
59999;DHT22;45859;51.378;6.736;2023-04-24T01:42:38;10.50;99.90
59999;DHT22;45859;51.378;6.736;2023-04-24T01:45:06;11.20;99.90
59999;DHT22;45859;51.378;6.736;2023-04-24T01:47:34;9.90;99.90
59999;DHT22;45859;51.378;6.736;2023-04-24T01:50:00;10.00;99.90
59999;DHT22;45859;51.378;6.736;2023-04-24T01:52:26;10.00;99.90
59999;DHT22;45859;51.378;6.736;2023-04-24T01:54:52;10.70;99.90
59999;DHT22;45859;51.378;6.736;2023-04-24T01:57:18;9.90;99.90
59999;DHT22;45859;51.378;6.736;2023-04-24T01:59:43;11.30;99.90
59999;DHT22;45859;51.378;6.736;2023-04-24T02:02:09;9.90;99.90
59999;DHT22;45859;51.378;6.736;2023-04-24T02:04:35;10.40;99.90
59999;DHT22;45859;51.378;6.736;2023-04-24T02:07:00;10.40;99.90
59999;DHT22;45859;51.378;6.736;2023-04-24T02:09:26;10.70;99.90
59999;DHT22;45859;51.378;6.736;2023-04-24T02:14:17;9.30;99.90
59999;DHT22;45859;51.378;6.736;2023-04-24T02:16:43;10.10;99.90
59999;DHT22;45859;51.378;6.736;2023-04-24T02:19:09;9.20;99.90
59999;DHT22;45859;51.378;6.736;2023-04-24T02:21:35;8.80;99.90
59999;DHT22;45859;51.378;6.736;2023-04-24T02:24:01;9.80;99.90
59999;DHT22;45859;51.378;6.736;2023-04-24T02:26:26;9.70;99.90
59999;DHT22;45859;51.378;6.736;2023-04-24T02:28:52;9.70;99.90
59999;DHT22;45859;51.378;6.736;2023-04-24T02:31:18;9.70;99.90
59999;DHT22;45859;51.378;6.736;2023-04-24T02:33:43;9.80;99.90
59999;DHT22;45859;51.378;6.736;2023-04-24T02:36:09;9.70;99.90
59999;DHT22;45859;51.378;6.736;2023-04-24T02:38:34;9.70;99.90
59999;DHT22;45859;51.378;6.736;2023-04-24T02:41:00;9.70;99.90
59999;DHT22;45859;51.378;6.736;2023-04-24T02:43:27;9.30;99.90
59999;DHT22;45859;51.378;6.736;2023-04-24T02:45:53;9.20;99.90
59999;DHT22;45859;51.378;6.736;2023-04-24T02:48:18;9.80;99.90
59999;DHT22;45859;51.378;6.736;2023-04-24T02:50:46;9.90;99.90
59999;DHT22;45859;51.378;6.736;2023-04-24T02:53:11;10.60;99.90
59999;DHT22;45859;51.378;6.736;2023-04-24T02:55:37;9.80;99.90
59999;DHT22;45859;51.378;6.736;2023-04-24T02:58:02;10.10;99.90
59999;DHT22;45859;51.378;6.736;2023-04-24T03:00:28;9.80;99.90
59999;DHT22;45859;51.378;6.736;2023-04-24T03:02:54;9.80;99.90
59999;DHT22;45859;51.378;6.736;2023-04-24T03:05:19;9.90;99.90
59999;DHT22;45859;51.378;6.736;2023-04-24T03:10:11;9.90;99.90
59999;DHT22;45859;51.378;6.736;2023-04-24T03:12:37;9.80;99.90
59999;DHT22;45859;51.378;6.736;2023-04-24T03:15:03;9.50;99.90
59999;DHT22;45859;51.378;6.736;2023-04-24T03:17:28;9.80;99.90
59999;DHT22;45859;51.378;6.736;2023-04-24T03:19:54;9.90;99.90
59999;DHT22;45859;51.378;6.736;2023-04-24T03:22:19;9.80;99.90
59999;DHT22;45859;51.378;6.736;2023-04-24T03:24:45;9.90;99.90
59999;DHT22;45859;51.378;6.736;2023-04-24T03:27:10;9.60;99.90
59999;DHT22;45859;51.378;6.736;2023-04-24T03:29:36;9.40;99.90
59999;DHT22;45859;51.378;6.736;2023-04-24T03:32:02;9.80;99.90
59999;DHT22;45859;51.378;6.736;2023-04-24T03:34:27;10.30;99.90
59999;DHT22;45859;51.378;6.736;2023-04-24T03:36:53;9.90;99.90
59999;DHT22;45859;51.378;6.736;2023-04-24T03:39:19;9.80;99.90
59999;DHT22;45859;51.378;6.736;2023-04-24T03:41:44;10.00;99.90
59999;DHT22;45859;51.378;6.736;2023-04-24T03:46:36;9.90;99.90
59999;DHT22;45859;51.378;6.736;2023-04-24T03:49:01;9.90;99.90
59999;DHT22;45859;51.378;6.736;2023-04-24T03:51:27;10.30;99.90
59999;DHT22;45859;51.378;6.736;2023-04-24T03:53:53;10.60;99.90
59999;DHT22;45859;51.378;6.736;2023-04-24T03:56:19;9.90;99.90
59999;DHT22;45859;51.378;6.736;2023-04-24T03:58:45;9.90;99.90
59999;DHT22;45859;51.378;6.736;2023-04-24T04:01:10;11.20;99.90
59999;DHT22;45859;51.378;6.736;2023-04-24T04:03:37;9.90;99.90
59999;DHT22;45859;51.378;6.736;2023-04-24T04:06:02;9.90;99.90
59999;DHT22;45859;51.378;6.736;2023-04-24T04:08:28;9.90;99.90
59999;DHT22;45859;51.378;6.736;2023-04-24T04:10:54;9.90;99.90
59999;DHT22;45859;51.378;6.736;2023-04-24T04:13:20;9.70;99.90
59999;DHT22;45859;51.378;6.736;2023-04-24T04:15:45;10.00;99.90
59999;DHT22;45859;51.378;6.736;2023-04-24T04:18:11;10.20;99.90
59999;DHT22;45859;51.378;6.736;2023-04-24T04:20:37;9.80;99.90
59999;DHT22;45859;51.378;6.736;2023-04-24T04:23:02;10.20;99.90
59999;DHT22;45859;51.378;6.736;2023-04-24T04:25:28;11.00;99.90
59999;DHT22;45859;51.378;6.736;2023-04-24T04:27:54;9.50;99.90
59999;DHT22;45859;51.378;6.736;2023-04-24T04:30:20;9.90;99.90
59999;DHT22;45859;51.378;6.736;2023-04-24T04:35:13;9.80;99.90
59999;DHT22;45859;51.378;6.736;2023-04-24T04:37:38;9.90;99.90
59999;DHT22;45859;51.378;6.736;2023-04-24T04:40:05;9.80;99.90
59999;DHT22;45859;51.378;6.736;2023-04-24T04:42:32;9.80;99.90
59999;DHT22;45859;51.378;6.736;2023-04-24T04:45:00;9.60;99.90
59999;DHT22;45859;51.378;6.736;2023-04-24T04:47:26;9.80;99.90
59999;DHT22;45859;51.378;6.736;2023-04-24T04:49:52;9.80;99.90
59999;DHT22;45859;51.378;6.736;2023-04-24T04:52:18;9.80;99.90
59999;DHT22;45859;51.378;6.736;2023-04-24T04:59:37;10.00;99.90
59999;DHT22;45859;51.378;6.736;2023-04-24T05:02:03;8.90;99.90
59999;DHT22;45859;51.378;6.736;2023-04-24T05:06:55;9.80;99.90
59999;DHT22;45859;51.378;6.736;2023-04-24T05:09:21;9.20;99.90
59999;DHT22;45859;51.378;6.736;2023-04-24T05:11:47;9.50;99.90
59999;DHT22;45859;51.378;6.736;2023-04-24T05:14:12;9.60;99.90
59999;DHT22;45859;51.378;6.736;2023-04-24T05:16:39;10.10;99.90
59999;DHT22;45859;51.378;6.736;2023-04-24T05:19:04;9.30;99.90
59999;DHT22;45859;51.378;6.736;2023-04-24T05:21:30;9.10;99.90
59999;DHT22;45859;51.378;6.736;2023-04-24T05:23:56;8.90;99.90
59999;DHT22;45859;51.378;6.736;2023-04-24T05:26:22;9.00;99.90
59999;DHT22;45859;51.378;6.736;2023-04-24T05:28:48;8.80;99.90
59999;DHT22;45859;51.378;6.736;2023-04-24T05:31:13;8.20;99.90
59999;DHT22;45859;51.378;6.736;2023-04-24T05:33:39;8.70;99.90
59999;DHT22;45859;51.378;6.736;2023-04-24T05:36:06;9.50;99.90
59999;DHT22;45859;51.378;6.736;2023-04-24T05:38:31;8.80;99.90
59999;DHT22;45859;51.378;6.736;2023-04-24T05:40:57;8.80;99.90
59999;DHT22;45859;51.378;6.736;2023-04-24T05:43:23;8.90;99.90
59999;DHT22;45859;51.378;6.736;2023-04-24T05:45:48;8.90;99.90
59999;DHT22;45859;51.378;6.736;2023-04-24T05:48:14;8.90;99.90
59999;DHT22;45859;51.378;6.736;2023-04-24T05:50:39;9.20;99.90
59999;DHT22;45859;51.378;6.736;2023-04-24T05:53:05;9.80;99.90
59999;DHT22;45859;51.378;6.736;2023-04-24T05:55:32;9.10;99.90
59999;DHT22;45859;51.378;6.736;2023-04-24T05:57:58;9.90;99.90
59999;DHT22;45859;51.378;6.736;2023-04-24T06:00:24;9.20;99.90
59999;DHT22;45859;51.378;6.736;2023-04-24T06:02:50;9.10;99.90
59999;DHT22;45859;51.378;6.736;2023-04-24T06:05:15;9.10;99.90
59999;DHT22;45859;51.378;6.736;2023-04-24T06:07:41;9.30;99.90
59999;DHT22;45859;51.378;6.736;2023-04-24T06:10:07;9.10;99.90
59999;DHT22;45859;51.378;6.736;2023-04-24T06:12:33;8.90;99.90
59999;DHT22;45859;51.378;6.736;2023-04-24T06:14:58;8.80;99.90
59999;DHT22;45859;51.378;6.736;2023-04-24T06:17:24;8.90;99.90
59999;DHT22;45859;51.378;6.736;2023-04-24T06:19:49;8.90;99.90
59999;DHT22;45859;51.378;6.736;2023-04-24T06:22:15;8.90;99.90
59999;DHT22;45859;51.378;6.736;2023-04-24T06:24:41;8.20;99.90
59999;DHT22;45859;51.378;6.736;2023-04-24T06:27:06;8.80;99.90
59999;DHT22;45859;51.378;6.736;2023-04-24T06:29:33;9.00;99.90
59999;DHT22;45859;51.378;6.736;2023-04-24T06:31:59;8.70;99.90
59999;DHT22;45859;51.378;6.736;2023-04-24T06:34:24;8.90;99.90
59999;DHT22;45859;51.378;6.736;2023-04-24T06:36:50;9.70;99.90
59999;DHT22;45859;51.378;6.736;2023-04-24T06:39:16;8.80;99.90
59999;DHT22;45859;51.378;6.736;2023-04-24T06:41:42;9.00;99.90
59999;DHT22;45859;51.378;6.736;2023-04-24T06:44:08;8.80;99.90
59999;DHT22;45859;51.378;6.736;2023-04-24T06:46:33;9.60;99.90
59999;DHT22;45859;51.378;6.736;2023-04-24T06:49:00;10.00;99.90
59999;DHT22;45859;51.378;6.736;2023-04-24T06:51:26;8.10;99.90
59999;DHT22;45859;51.378;6.736;2023-04-24T06:53:55;8.80;99.90
59999;DHT22;45859;51.378;6.736;2023-04-24T06:56:24;10.10;99.90
59999;DHT22;45859;51.378;6.736;2023-04-24T06:58:50;9.70;99.90
59999;DHT22;45859;51.378;6.736;2023-04-24T07:01:16;8.40;99.90
59999;DHT22;45859;51.378;6.736;2023-04-24T07:03:42;8.80;99.90
59999;DHT22;45859;51.378;6.736;2023-04-24T07:06:08;8.80;99.90
59999;DHT22;45859;51.378;6.736;2023-04-24T07:08:34;8.80;99.90
59999;DHT22;45859;51.378;6.736;2023-04-24T07:11:01;8.80;99.90
59999;DHT22;45859;51.378;6.736;2023-04-24T07:13:27;8.80;99.90
59999;DHT22;45859;51.378;6.736;2023-04-24T07:15:54;8.70;99.90
59999;DHT22;45859;51.378;6.736;2023-04-24T07:18:20;9.20;99.90
59999;DHT22;45859;51.378;6.736;2023-04-24T07:20:46;8.60;99.90
59999;DHT22;45859;51.378;6.736;2023-04-24T07:23:12;8.40;99.90
59999;DHT22;45859;51.378;6.736;2023-04-24T07:25:38;9.70;99.90
59999;DHT22;45859;51.378;6.736;2023-04-24T07:28:04;8.70;99.90
59999;DHT22;45859;51.378;6.736;2023-04-24T07:30:31;8.60;99.90
59999;DHT22;45859;51.378;6.736;2023-04-24T07:32:58;8.40;99.90
59999;DHT22;45859;51.378;6.736;2023-04-24T07:35:24;8.50;99.90
59999;DHT22;45859;51.378;6.736;2023-04-24T07:37:51;9.60;99.90
59999;DHT22;45859;51.378;6.736;2023-04-24T07:40:18;7.80;99.90
59999;DHT22;45859;51.378;6.736;2023-04-24T07:42:44;8.10;99.90
59999;DHT22;45859;51.378;6.736;2023-04-24T07:47:35;7.40;99.90
59999;DHT22;45859;51.378;6.736;2023-04-24T07:50:03;8.40;99.90
59999;DHT22;45859;51.378;6.736;2023-04-24T07:52:28;8.10;99.90
59999;DHT22;45859;51.378;6.736;2023-04-24T07:54:54;8.00;99.90
59999;DHT22;45859;51.378;6.736;2023-04-24T07:57:24;7.90;99.90
59999;DHT22;45859;51.378;6.736;2023-04-24T07:59:50;7.90;99.90
59999;DHT22;45859;51.378;6.736;2023-04-24T08:02:16;7.30;99.90
59999;DHT22;45859;51.378;6.736;2023-04-24T08:07:08;7.70;99.90
59999;DHT22;45859;51.378;6.736;2023-04-24T08:09:33;6.80;99.90
59999;DHT22;45859;51.378;6.736;2023-04-24T08:11:59;8.10;99.90
59999;DHT22;45859;51.378;6.736;2023-04-24T08:14:25;7.60;99.90
59999;DHT22;45859;51.378;6.736;2023-04-24T08:16:51;8.10;99.90
59999;DHT22;45859;51.378;6.736;2023-04-24T08:19:17;8.20;99.90
59999;DHT22;45859;51.378;6.736;2023-04-24T08:21:43;8.20;99.90
59999;DHT22;45859;51.378;6.736;2023-04-24T08:24:08;8.20;99.90
59999;DHT22;45859;51.378;6.736;2023-04-24T08:26:34;8.60;99.90
59999;DHT22;45859;51.378;6.736;2023-04-24T08:29:00;9.70;99.90
59999;DHT22;45859;51.378;6.736;2023-04-24T08:31:25;8.30;99.90
59999;DHT22;45859;51.378;6.736;2023-04-24T08:33:51;8.50;99.90
59999;DHT22;45859;51.378;6.736;2023-04-24T08:36:17;8.50;99.90
59999;DHT22;45859;51.378;6.736;2023-04-24T08:38:42;8.40;99.90
59999;DHT22;45859;51.378;6.736;2023-04-24T08:41:09;8.70;99.90
59999;DHT22;45859;51.378;6.736;2023-04-24T08:43:35;9.10;99.90
59999;DHT22;45859;51.378;6.736;2023-04-24T08:46:04;8.80;99.90
59999;DHT22;45859;51.378;6.736;2023-04-24T08:48:30;8.80;99.90
59999;DHT22;45859;51.378;6.736;2023-04-24T08:50:57;9.00;99.90
59999;DHT22;45859;51.378;6.736;2023-04-24T08:53:24;8.90;99.90
59999;DHT22;45859;51.378;6.736;2023-04-24T08:55:51;8.80;99.90
59999;DHT22;45859;51.378;6.736;2023-04-24T08:58:19;8.90;99.90
59999;DHT22;45859;51.378;6.736;2023-04-24T09:00:45;8.70;99.90
59999;DHT22;45859;51.378;6.736;2023-04-24T09:03:16;9.00;99.90
59999;DHT22;45859;51.378;6.736;2023-04-24T09:05:47;8.70;99.90
59999;DHT22;45859;51.378;6.736;2023-04-24T09:08:16;8.70;99.90
59999;DHT22;45859;51.378;6.736;2023-04-24T09:10:43;8.90;99.90
59999;DHT22;45859;51.378;6.736;2023-04-24T09:13:08;7.60;99.90
59999;DHT22;45859;51.378;6.736;2023-04-24T09:15:41;8.80;99.90
59999;DHT22;45859;51.378;6.736;2023-04-24T09:18:06;9.40;99.90
59999;DHT22;45859;51.378;6.736;2023-04-24T09:20:33;8.30;99.90
59999;DHT22;45859;51.378;6.736;2023-04-24T09:23:00;8.50;99.90
59999;DHT22;45859;51.378;6.736;2023-04-24T09:25:33;7.70;99.90
59999;DHT22;45859;51.378;6.736;2023-04-24T09:28:02;8.50;99.90
59999;DHT22;45859;51.378;6.736;2023-04-24T09:30:28;8.60;99.90
59999;DHT22;45859;51.378;6.736;2023-04-24T09:33:12;8.50;99.90
59999;DHT22;45859;51.378;6.736;2023-04-24T09:35:50;9.10;99.90
59999;DHT22;45859;51.378;6.736;2023-04-24T09:38:16;8.10;99.90
59999;DHT22;45859;51.378;6.736;2023-04-24T09:40:41;8.40;99.90
59999;DHT22;45859;51.378;6.736;2023-04-24T09:43:10;8.50;99.90
59999;DHT22;45859;51.378;6.736;2023-04-24T09:45:38;8.40;99.90
59999;DHT22;45859;51.378;6.736;2023-04-24T09:48:04;8.50;99.90
59999;DHT22;45859;51.378;6.736;2023-04-24T09:50:31;8.40;99.90
59999;DHT22;45859;51.378;6.736;2023-04-24T09:53:01;8.40;99.90
59999;DHT22;45859;51.378;6.736;2023-04-24T09:55:27;8.50;99.90
59999;DHT22;45859;51.378;6.736;2023-04-24T09:57:54;8.40;99.90
59999;DHT22;45859;51.378;6.736;2023-04-24T10:00:28;8.50;99.90
59999;DHT22;45859;51.378;6.736;2023-04-24T10:02:58;8.60;99.90
59999;DHT22;45859;51.378;6.736;2023-04-24T10:05:33;9.40;99.90
59999;DHT22;45859;51.378;6.736;2023-04-24T10:08:06;8.80;99.90
59999;DHT22;45859;51.378;6.736;2023-04-24T10:10:33;8.80;99.90
59999;DHT22;45859;51.378;6.736;2023-04-24T10:12:59;8.80;99.90
59999;DHT22;45859;51.378;6.736;2023-04-24T10:15:26;9.00;99.90
59999;DHT22;45859;51.378;6.736;2023-04-24T10:17:51;8.90;99.90
59999;DHT22;45859;51.378;6.736;2023-04-24T10:20:22;8.80;99.90
59999;DHT22;45859;51.378;6.736;2023-04-24T10:22:50;8.90;99.90
59999;DHT22;45859;51.378;6.736;2023-04-24T10:25:25;10.40;99.90
59999;DHT22;45859;51.378;6.736;2023-04-24T10:27:52;9.10;99.90
59999;DHT22;45859;51.378;6.736;2023-04-24T10:30:21;9.20;99.90
59999;DHT22;45859;51.378;6.736;2023-04-24T10:32:46;9.10;99.90
59999;DHT22;45859;51.378;6.736;2023-04-24T10:35:13;9.10;99.90
59999;DHT22;45859;51.378;6.736;2023-04-24T10:37:45;9.10;99.90
59999;DHT22;45859;51.378;6.736;2023-04-24T10:40:11;9.10;99.90
59999;DHT22;45859;51.378;6.736;2023-04-24T10:42:41;9.20;99.90
59999;DHT22;45859;51.378;6.736;2023-04-24T10:45:19;9.10;99.90
59999;DHT22;45859;51.378;6.736;2023-04-24T10:48:00;9.20;99.90
59999;DHT22;45859;51.378;6.736;2023-04-24T10:50:42;9.30;99.90
59999;DHT22;45859;51.378;6.736;2023-04-24T10:53:22;9.40;99.90
59999;DHT22;45859;51.378;6.736;2023-04-24T10:56:06;9.50;99.90
59999;DHT22;45859;51.378;6.736;2023-04-24T10:58:36;9.60;99.90
59999;DHT22;45859;51.378;6.736;2023-04-24T11:01:03;9.80;99.90
59999;DHT22;45859;51.378;6.736;2023-04-24T11:03:31;10.10;99.90
59999;DHT22;45859;51.378;6.736;2023-04-24T11:06:02;10.20;99.90
59999;DHT22;45859;51.378;6.736;2023-04-24T11:08:36;10.30;99.90
59999;DHT22;45859;51.378;6.736;2023-04-24T11:11:13;10.90;99.90
59999;DHT22;45859;51.378;6.736;2023-04-24T11:16:21;10.20;99.90
59999;DHT22;45859;51.378;6.736;2023-04-24T11:18:59;10.00;99.90
59999;DHT22;45859;51.378;6.736;2023-04-24T11:21:28;9.90;99.90
59999;DHT22;45859;51.378;6.736;2023-04-24T11:23:56;9.90;99.90
59999;DHT22;45859;51.378;6.736;2023-04-24T11:26:22;10.10;99.90
59999;DHT22;45859;51.378;6.736;2023-04-24T11:29:06;10.10;99.90
59999;DHT22;45859;51.378;6.736;2023-04-24T11:31:37;10.20;99.90
59999;DHT22;45859;51.378;6.736;2023-04-24T11:34:11;10.20;99.90
59999;DHT22;45859;51.378;6.736;2023-04-24T11:36:39;11.30;99.90
59999;DHT22;45859;51.378;6.736;2023-04-24T11:39:05;10.30;99.90
59999;DHT22;45859;51.378;6.736;2023-04-24T11:41:31;10.40;99.90
59999;DHT22;45859;51.378;6.736;2023-04-24T11:43:57;10.50;99.90
59999;DHT22;45859;51.378;6.736;2023-04-24T11:46:29;10.60;99.90
59999;DHT22;45859;51.378;6.736;2023-04-24T11:48:56;10.70;99.90
59999;DHT22;45859;51.378;6.736;2023-04-24T11:51:26;10.80;99.90
59999;DHT22;45859;51.378;6.736;2023-04-24T11:53:53;10.90;99.90
59999;DHT22;45859;51.378;6.736;2023-04-24T11:56:25;10.80;99.90
59999;DHT22;45859;51.378;6.736;2023-04-24T11:58:54;10.60;99.90
59999;DHT22;45859;51.378;6.736;2023-04-24T12:01:20;10.50;99.90
59999;DHT22;45859;51.378;6.736;2023-04-24T12:03:59;10.40;99.90
59999;DHT22;45859;51.378;6.736;2023-04-24T12:06:25;10.30;99.90
59999;DHT22;45859;51.378;6.736;2023-04-24T12:08:52;11.30;99.90
59999;DHT22;45859;51.378;6.736;2023-04-24T12:11:20;10.30;99.90
59999;DHT22;45859;51.378;6.736;2023-04-24T12:13:46;10.20;99.90
59999;DHT22;45859;51.378;6.736;2023-04-24T12:16:12;10.30;99.90
59999;DHT22;45859;51.378;6.736;2023-04-24T12:18:45;10.40;99.90
59999;DHT22;45859;51.378;6.736;2023-04-24T12:21:23;10.40;99.90
59999;DHT22;45859;51.378;6.736;2023-04-24T12:23:54;10.50;99.90
59999;DHT22;45859;51.378;6.736;2023-04-24T12:26:21;10.40;99.90
59999;DHT22;45859;51.378;6.736;2023-04-24T12:28:49;10.50;99.90
59999;DHT22;45859;51.378;6.736;2023-04-24T12:31:16;10.60;99.90
59999;DHT22;45859;51.378;6.736;2023-04-24T12:33:42;10.90;99.90
59999;DHT22;45859;51.378;6.736;2023-04-24T12:36:11;11.10;99.90
59999;DHT22;45859;51.378;6.736;2023-04-24T12:38:38;12.10;99.90
59999;DHT22;45859;51.378;6.736;2023-04-24T12:41:11;11.50;99.90
59999;DHT22;45859;51.378;6.736;2023-04-24T12:43:37;11.60;99.90
59999;DHT22;45859;51.378;6.736;2023-04-24T12:46:04;11.50;99.90
59999;DHT22;45859;51.378;6.736;2023-04-24T12:48:31;11.30;99.90
59999;DHT22;45859;51.378;6.736;2023-04-24T12:50:58;11.30;99.90
59999;DHT22;45859;51.378;6.736;2023-04-24T12:53:27;11.20;99.90
59999;DHT22;45859;51.378;6.736;2023-04-24T12:55:55;11.30;99.90
59999;DHT22;45859;51.378;6.736;2023-04-24T12:58:21;11.20;99.90
59999;DHT22;45859;51.378;6.736;2023-04-24T13:00:47;11.10;99.90
59999;DHT22;45859;51.378;6.736;2023-04-24T13:03:13;10.90;99.90
59999;DHT22;45859;51.378;6.736;2023-04-24T13:05:39;10.80;99.90
59999;DHT22;45859;51.378;6.736;2023-04-24T13:08:05;10.60;99.90
59999;DHT22;45859;51.378;6.736;2023-04-24T13:10:31;10.50;99.90
59999;DHT22;45859;51.378;6.736;2023-04-24T13:12:57;10.60;99.90
59999;DHT22;45859;51.378;6.736;2023-04-24T13:15:23;10.70;99.90
59999;DHT22;45859;51.378;6.736;2023-04-24T13:17:49;10.80;99.90
59999;DHT22;45859;51.378;6.736;2023-04-24T13:20:14;10.70;99.90
59999;DHT22;45859;51.378;6.736;2023-04-24T13:22:40;10.70;99.90
59999;DHT22;45859;51.378;6.736;2023-04-24T13:25:06;10.50;99.90
59999;DHT22;45859;51.378;6.736;2023-04-24T13:27:32;10.60;99.90
59999;DHT22;45859;51.378;6.736;2023-04-24T13:29:58;10.70;99.90
59999;DHT22;45859;51.378;6.736;2023-04-24T13:32:24;10.90;99.90
59999;DHT22;45859;51.378;6.736;2023-04-24T13:34:50;11.00;99.90
59999;DHT22;45859;51.378;6.736;2023-04-24T13:37:16;11.20;99.90
59999;DHT22;45859;51.378;6.736;2023-04-24T13:39:41;11.40;99.90
59999;DHT22;45859;51.378;6.736;2023-04-24T13:42:07;10.70;99.90
59999;DHT22;45859;51.378;6.736;2023-04-24T13:44:33;11.70;99.90
59999;DHT22;45859;51.378;6.736;2023-04-24T13:46:59;11.80;99.90
59999;DHT22;45859;51.378;6.736;2023-04-24T13:49:26;11.80;99.90
59999;DHT22;45859;51.378;6.736;2023-04-24T13:51:52;11.80;99.90
59999;DHT22;45859;51.378;6.736;2023-04-24T13:54:18;11.70;99.90
59999;DHT22;45859;51.378;6.736;2023-04-24T13:56:44;11.60;99.90
59999;DHT22;45859;51.378;6.736;2023-04-24T13:59:14;11.70;99.90
59999;DHT22;45859;51.378;6.736;2023-04-24T14:01:40;11.80;99.90
59999;DHT22;45859;51.378;6.736;2023-04-24T14:04:06;12.00;99.90
59999;DHT22;45859;51.378;6.736;2023-04-24T14:06:32;12.20;99.90
59999;DHT22;45859;51.378;6.736;2023-04-24T14:09:01;12.30;99.90
59999;DHT22;45859;51.378;6.736;2023-04-24T14:11:27;12.60;99.90
59999;DHT22;45859;51.378;6.736;2023-04-24T14:13:54;12.60;99.90
59999;DHT22;45859;51.378;6.736;2023-04-24T14:16:20;12.70;99.90
59999;DHT22;45859;51.378;6.736;2023-04-24T14:18:46;12.60;99.90
59999;DHT22;45859;51.378;6.736;2023-04-24T14:21:12;12.70;99.90
59999;DHT22;45859;51.378;6.736;2023-04-24T14:23:37;12.70;99.90
59999;DHT22;45859;51.378;6.736;2023-04-24T14:26:03;12.60;99.90
59999;DHT22;45859;51.378;6.736;2023-04-24T14:28:29;12.50;99.90
59999;DHT22;45859;51.378;6.736;2023-04-24T14:30:54;12.40;99.90
59999;DHT22;45859;51.378;6.736;2023-04-24T14:33:20;12.30;99.90
59999;DHT22;45859;51.378;6.736;2023-04-24T14:35:46;12.00;99.90
59999;DHT22;45859;51.378;6.736;2023-04-24T14:38:13;11.90;99.90
59999;DHT22;45859;51.378;6.736;2023-04-24T14:40:39;11.70;99.90
59999;DHT22;45859;51.378;6.736;2023-04-24T14:43:05;11.60;99.90
59999;DHT22;45859;51.378;6.736;2023-04-24T14:45:31;11.30;99.90
59999;DHT22;45859;51.378;6.736;2023-04-24T14:47:57;11.30;99.90
59999;DHT22;45859;51.378;6.736;2023-04-24T14:50:26;11.30;99.90
59999;DHT22;45859;51.378;6.736;2023-04-24T14:52:54;11.30;99.90
59999;DHT22;45859;51.378;6.736;2023-04-24T14:55:20;11.30;99.90
59999;DHT22;45859;51.378;6.736;2023-04-24T14:57:47;11.30;99.90
59999;DHT22;45859;51.378;6.736;2023-04-24T15:00:13;11.30;99.90
59999;DHT22;45859;51.378;6.736;2023-04-24T15:02:39;11.40;99.90
59999;DHT22;45859;51.378;6.736;2023-04-24T15:05:07;11.40;99.90
59999;DHT22;45859;51.378;6.736;2023-04-24T15:07:33;11.40;99.90
59999;DHT22;45859;51.378;6.736;2023-04-24T15:10:01;11.50;99.90
59999;DHT22;45859;51.378;6.736;2023-04-24T15:12:26;11.50;99.90
59999;DHT22;45859;51.378;6.736;2023-04-24T15:14:54;11.60;99.90
59999;DHT22;45859;51.378;6.736;2023-04-24T15:17:19;11.90;99.90
59999;DHT22;45859;51.378;6.736;2023-04-24T15:19:45;11.90;99.90
59999;DHT22;45859;51.378;6.736;2023-04-24T15:22:11;12.00;99.90
59999;DHT22;45859;51.378;6.736;2023-04-24T15:24:36;11.90;99.90
59999;DHT22;45859;51.378;6.736;2023-04-24T15:27:02;11.80;99.90
59999;DHT22;45859;51.378;6.736;2023-04-24T15:29:29;11.70;99.90
59999;DHT22;45859;51.378;6.736;2023-04-24T15:31:54;11.60;99.90
59999;DHT22;45859;51.378;6.736;2023-04-24T15:34:20;11.60;99.90
59999;DHT22;45859;51.378;6.736;2023-04-24T15:36:46;11.60;99.90
59999;DHT22;45859;51.378;6.736;2023-04-24T15:39:12;11.50;99.90
59999;DHT22;45859;51.378;6.736;2023-04-24T15:41:38;11.50;99.90
59999;DHT22;45859;51.378;6.736;2023-04-24T15:44:03;11.50;99.90
59999;DHT22;45859;51.378;6.736;2023-04-24T15:46:29;11.50;99.90
59999;DHT22;45859;51.378;6.736;2023-04-24T15:48:55;11.60;99.90
59999;DHT22;45859;51.378;6.736;2023-04-24T15:51:21;11.70;99.90
59999;DHT22;45859;51.378;6.736;2023-04-24T15:53:46;11.70;99.90
59999;DHT22;45859;51.378;6.736;2023-04-24T15:56:13;11.80;99.90
59999;DHT22;45859;51.378;6.736;2023-04-24T15:58:38;11.80;99.90
59999;DHT22;45859;51.378;6.736;2023-04-24T16:01:05;11.80;99.90
59999;DHT22;45859;51.378;6.736;2023-04-24T16:03:30;11.50;99.90